createdAt,value
2023-06-30T00:01:03.746Z,18.14
2023-06-30T00:03:32.210Z,18.15
2023-06-30T00:05:59.959Z,18.15
2023-06-30T00:08:28.334Z,18.14
2023-06-30T00:10:55.902Z,18.15
2023-06-30T00:13:23.475Z,18.15
2023-06-30T00:15:52.546Z,18.11
2023-06-30T00:18:20.206Z,18.07
2023-06-30T00:20:47.906Z,18.03
2023-06-30T00:23:15.685Z,18.05
2023-06-30T00:25:43.407Z,18.00
2023-06-30T00:28:11.227Z,18.04
2023-06-30T00:30:39.347Z,18.04
2023-06-30T00:33:08.359Z,18.03
2023-06-30T00:35:36.071Z,18.05
2023-06-30T00:38:03.703Z,18.04
2023-06-30T00:40:31.344Z,18.05
2023-06-30T00:43:01.795Z,18.06
2023-06-30T00:45:29.374Z,17.98
2023-06-30T00:47:57.054Z,17.97
2023-06-30T00:50:26.392Z,17.97
2023-06-30T00:52:54.365Z,17.93
2023-06-30T00:55:22.005Z,17.94
2023-06-30T00:57:49.665Z,17.87
2023-06-30T01:00:18.431Z,17.91
2023-06-30T01:02:51.854Z,17.93
2023-06-30T01:05:26.112Z,17.85
2023-06-30T01:07:58.492Z,17.87
2023-06-30T01:10:27.004Z,17.86
2023-06-30T01:12:54.733Z,17.91
2023-06-30T01:15:23.184Z,17.90
2023-06-30T01:17:56.074Z,17.84
2023-06-30T01:20:24.106Z,17.81
2023-06-30T01:22:56.278Z,17.79
2023-06-30T01:25:27.532Z,17.82
2023-06-30T01:27:56.125Z,17.80
2023-06-30T01:30:24.401Z,17.82
2023-06-30T01:32:56.035Z,17.79
2023-06-30T01:35:24.333Z,17.75
2023-06-30T01:37:52.042Z,17.75
2023-06-30T01:40:21.261Z,17.76
2023-06-30T01:42:49.524Z,17.72
2023-06-30T01:45:17.564Z,17.71
2023-06-30T01:47:45.527Z,17.77
2023-06-30T01:50:13.505Z,17.72
2023-06-30T01:52:41.178Z,17.61
2023-06-30T01:55:09.509Z,17.53
2023-06-30T01:57:38.423Z,17.50
2023-06-30T02:00:07.410Z,17.38
2023-06-30T02:02:35.254Z,17.44
2023-06-30T02:05:03.058Z,17.41
2023-06-30T02:07:30.854Z,17.44
2023-06-30T02:09:58.492Z,17.38
2023-06-30T02:12:26.082Z,17.31
2023-06-30T02:14:55.358Z,17.29
2023-06-30T02:17:29.395Z,17.36
2023-06-30T02:19:57.069Z,17.42
2023-06-30T02:22:24.635Z,17.34
2023-06-30T02:24:54.548Z,17.38
2023-06-30T02:27:22.132Z,17.43
2023-06-30T02:29:49.673Z,17.44
2023-06-30T02:32:18.598Z,17.42
2023-06-30T02:34:46.242Z,17.30
2023-06-30T02:37:13.856Z,17.26
2023-06-30T02:39:41.637Z,17.21
2023-06-30T02:42:09.392Z,17.21
2023-06-30T02:44:36.979Z,17.19
2023-06-30T02:47:04.993Z,17.19
2023-06-30T02:49:34.469Z,17.17
2023-06-30T02:52:02.206Z,17.14
2023-06-30T02:54:29.761Z,17.18
2023-06-30T02:56:57.469Z,17.14
2023-06-30T02:59:25.008Z,17.20
2023-06-30T03:01:52.955Z,17.00
2023-06-30T03:04:20.705Z,16.88
2023-06-30T03:06:49.668Z,16.89
2023-06-30T03:09:17.211Z,16.98
2023-06-30T03:11:44.766Z,17.01
2023-06-30T03:14:12.993Z,17.11
2023-06-30T03:16:40.608Z,17.13
2023-06-30T03:19:08.283Z,17.05
2023-06-30T03:21:35.864Z,17.10
2023-06-30T03:24:05.250Z,17.14
2023-06-30T03:26:32.899Z,17.09
2023-06-30T03:29:02.013Z,17.19
2023-06-30T03:31:29.758Z,17.26
2023-06-30T03:33:59.933Z,17.31
2023-06-30T03:36:27.480Z,17.24
2023-06-30T03:38:55.101Z,17.31
2023-06-30T03:41:24.044Z,17.34
2023-06-30T03:43:51.585Z,17.40
2023-06-30T03:46:19.446Z,17.41
2023-06-30T03:48:47.221Z,17.47
2023-06-30T03:51:14.800Z,17.51
2023-06-30T03:53:43.351Z,17.50
2023-06-30T03:56:10.928Z,17.53
2023-06-30T03:58:39.811Z,17.50
2023-06-30T04:01:07.956Z,17.28
2023-06-30T04:03:35.921Z,17.27
2023-06-30T04:06:03.610Z,16.95
2023-06-30T04:08:31.276Z,17.07
2023-06-30T04:10:58.923Z,17.20
2023-06-30T04:13:26.494Z,17.31
2023-06-30T04:15:55.390Z,17.32
2023-06-30T04:18:23.004Z,17.33
2023-06-30T04:20:50.564Z,17.23
2023-06-30T04:23:18.148Z,17.07
2023-06-30T04:25:46.068Z,17.01
2023-06-30T04:28:13.893Z,16.85
2023-06-30T04:30:41.493Z,16.95
2023-06-30T04:33:10.504Z,16.95
2023-06-30T04:35:38.157Z,17.02
2023-06-30T04:38:05.811Z,16.95
2023-06-30T04:40:33.332Z,16.98
2023-06-30T04:43:01.482Z,16.79
2023-06-30T04:45:29.273Z,16.75
2023-06-30T04:47:56.990Z,16.83
2023-06-30T04:50:26.390Z,16.88
2023-06-30T04:52:54.038Z,16.92
2023-06-30T04:55:21.793Z,17.07
2023-06-30T04:57:49.789Z,17.17
2023-06-30T05:00:17.920Z,17.25
2023-06-30T05:02:45.497Z,17.29
2023-06-30T05:05:13.589Z,17.33
2023-06-30T05:07:42.617Z,17.21
2023-06-30T05:10:11.451Z,17.27
2023-06-30T05:12:39.057Z,17.27
2023-06-30T05:15:08.852Z,17.33
2023-06-30T05:17:36.516Z,17.35
2023-06-30T05:20:06.361Z,17.53
2023-06-30T05:22:33.937Z,17.35
2023-06-30T05:25:02.900Z,17.45
2023-06-30T05:27:30.496Z,17.63
2023-06-30T05:29:58.141Z,17.41
2023-06-30T05:32:25.753Z,17.52
2023-06-30T05:34:53.454Z,17.45
2023-06-30T05:37:21.031Z,17.49
2023-06-30T05:39:48.629Z,17.53
2023-06-30T05:42:17.520Z,17.58
2023-06-30T05:44:45.154Z,17.65
2023-06-30T05:47:12.887Z,17.64
2023-06-30T05:49:40.515Z,17.64
2023-06-30T05:52:09.262Z,17.77
2023-06-30T05:54:36.920Z,17.69
2023-06-30T05:57:04.944Z,17.74
2023-06-30T05:59:33.858Z,17.75
2023-06-30T06:02:01.451Z,17.92
2023-06-30T06:04:29.267Z,17.90
2023-06-30T06:06:57.129Z,18.04
2023-06-30T06:09:24.724Z,18.08
2023-06-30T06:11:52.583Z,18.32
2023-06-30T06:14:20.808Z,18.46
2023-06-30T06:16:49.705Z,18.35
2023-06-30T06:19:18.476Z,18.77
2023-06-30T06:21:46.153Z,19.15
2023-06-30T06:24:14.152Z,19.27
2023-06-30T06:26:42.921Z,19.43
2023-06-30T06:29:10.661Z,19.38
2023-06-30T06:31:38.291Z,19.41
2023-06-30T06:34:07.174Z,19.71
2023-06-30T06:36:34.704Z,19.83
2023-06-30T06:39:03.810Z,20.12
2023-06-30T06:41:32.097Z,20.31
2023-06-30T06:43:59.778Z,20.23
2023-06-30T06:46:27.462Z,20.13
2023-06-30T06:48:56.047Z,20.39
2023-06-30T06:51:25.545Z,20.21
2023-06-30T06:53:54.292Z,20.50
2023-06-30T06:56:22.123Z,20.67
2023-06-30T06:58:49.689Z,20.76
2023-06-30T07:01:17.398Z,21.02
2023-06-30T07:03:45.068Z,20.71
2023-06-30T07:06:12.781Z,20.54
2023-06-30T07:08:41.649Z,20.59
2023-06-30T07:11:09.590Z,20.78
2023-06-30T07:13:37.163Z,20.76
2023-06-30T07:16:04.810Z,20.60
2023-06-30T07:18:33.735Z,20.68
2023-06-30T07:21:01.903Z,20.77
2023-06-30T07:23:29.475Z,21.15
2023-06-30T07:25:58.375Z,21.41
2023-06-30T07:28:25.916Z,21.64
2023-06-30T07:30:53.753Z,21.72
2023-06-30T07:33:21.360Z,21.28
2023-06-30T07:35:49.342Z,21.51
2023-06-30T07:38:17.264Z,21.71
2023-06-30T07:40:55.682Z,21.80
2023-06-30T07:43:25.916Z,21.93
2023-06-30T07:45:53.600Z,21.72
2023-06-30T07:48:21.356Z,21.25
2023-06-30T07:50:59.509Z,21.34
2023-06-30T07:53:35.179Z,20.82
2023-06-30T07:56:02.752Z,21.37
2023-06-30T07:58:31.705Z,21.04
2023-06-30T08:00:59.318Z,20.97
2023-06-30T08:03:27.169Z,21.58
2023-06-30T08:05:56.439Z,21.69
2023-06-30T08:08:24.484Z,21.89
2023-06-30T08:10:52.069Z,22.47
2023-06-30T08:13:19.659Z,22.65
2023-06-30T08:15:49.470Z,22.75
2023-06-30T08:18:30.391Z,23.04
2023-06-30T08:21:01.574Z,23.05
2023-06-30T08:23:29.226Z,22.70
2023-06-30T08:25:56.833Z,22.67
2023-06-30T08:28:24.455Z,22.86
2023-06-30T08:30:53.567Z,22.91
2023-06-30T08:33:35.073Z,22.94
2023-06-30T08:36:07.893Z,22.50
2023-06-30T08:38:35.637Z,22.60
2023-06-30T08:41:04.111Z,22.95
2023-06-30T08:43:33.537Z,22.70
2023-06-30T08:46:03.600Z,22.96
2023-06-30T08:48:32.316Z,22.95
2023-06-30T08:51:01.098Z,23.07
2023-06-30T08:53:30.254Z,22.77
2023-06-30T08:56:00.359Z,22.96
2023-06-30T08:58:28.456Z,23.47
2023-06-30T09:00:57.066Z,22.98
2023-06-30T09:03:26.407Z,23.13
2023-06-30T09:05:56.582Z,23.00
2023-06-30T09:08:25.525Z,23.29
2023-06-30T09:10:53.141Z,23.31
2023-06-30T09:13:22.179Z,23.56
2023-06-30T09:15:50.153Z,23.69
2023-06-30T09:18:18.146Z,23.59
2023-06-30T09:20:47.193Z,23.85
2023-06-30T09:23:15.241Z,23.59
2023-06-30T09:25:43.050Z,23.81
2023-06-30T09:28:15.582Z,24.14
2023-06-30T09:30:47.028Z,23.75
2023-06-30T09:33:15.874Z,23.72
2023-06-30T09:35:45.209Z,23.21
2023-06-30T09:38:14.954Z,23.45
2023-06-30T09:40:46.194Z,23.69
2023-06-30T09:43:18.961Z,23.83
2023-06-30T09:45:48.989Z,23.56
2023-06-30T09:48:17.144Z,23.20
2023-06-30T09:50:44.812Z,23.15
2023-06-30T09:53:13.793Z,23.44
2023-06-30T09:55:48.908Z,23.11
2023-06-30T09:58:17.028Z,23.70
2023-06-30T10:00:45.009Z,23.73
2023-06-30T10:03:12.773Z,23.91
2023-06-30T10:05:41.089Z,24.31
2023-06-30T10:08:09.363Z,24.51
2023-06-30T10:10:38.343Z,24.89
2023-06-30T10:13:07.272Z,25.18
2023-06-30T10:15:35.545Z,25.34
2023-06-30T10:18:04.580Z,25.18
2023-06-30T10:20:46.398Z,25.24
2023-06-30T10:23:16.494Z,25.44
2023-06-30T10:25:46.101Z,25.89
2023-06-30T10:28:14.463Z,25.17
2023-06-30T10:30:42.165Z,25.65
2023-06-30T10:33:09.808Z,25.71
2023-06-30T10:35:37.526Z,25.25
2023-06-30T10:38:05.338Z,25.63
2023-06-30T10:40:33.992Z,25.52
2023-06-30T10:43:02.953Z,25.33
2023-06-30T10:45:31.743Z,25.42
2023-06-30T10:47:59.592Z,25.66
2023-06-30T10:50:27.331Z,25.45
2023-06-30T10:52:55.954Z,25.49
2023-06-30T10:55:24.434Z,25.61
2023-06-30T10:57:53.849Z,25.52
2023-06-30T11:00:25.750Z,25.41
2023-06-30T11:02:58.549Z,25.67
2023-06-30T11:05:27.613Z,25.04
2023-06-30T11:07:56.585Z,25.47
2023-06-30T11:10:28.717Z,24.88
2023-06-30T11:12:57.710Z,25.44
2023-06-30T11:15:35.750Z,25.43
2023-06-30T11:18:04.806Z,25.95
2023-06-30T11:20:32.762Z,26.36
2023-06-30T11:23:02.202Z,26.23
2023-06-30T11:25:30.562Z,26.27
2023-06-30T11:27:58.817Z,26.43
2023-06-30T11:30:27.259Z,26.23
2023-06-30T11:33:00.135Z,26.25
2023-06-30T11:35:30.150Z,25.55
2023-06-30T11:37:57.827Z,25.48
2023-06-30T11:40:25.782Z,25.61
2023-06-30T11:42:54.100Z,25.22
2023-06-30T11:45:22.173Z,26.08
2023-06-30T11:47:52.481Z,26.20
2023-06-30T11:50:21.664Z,25.99
2023-06-30T11:52:49.848Z,25.79
2023-06-30T11:55:18.415Z,26.60
2023-06-30T11:57:47.931Z,27.28
2023-06-30T12:00:18.697Z,27.96
2023-06-30T12:02:49.624Z,28.37
2023-06-30T12:05:22.609Z,27.63
2023-06-30T12:07:52.844Z,27.16
2023-06-30T12:10:22.020Z,26.73
2023-06-30T12:12:55.322Z,25.66
2023-06-30T12:15:23.378Z,25.37
2023-06-30T12:17:55.610Z,24.94
2023-06-30T12:20:32.802Z,24.77
2023-06-30T12:23:00.477Z,24.39
2023-06-30T12:25:28.984Z,24.08
2023-06-30T12:27:56.571Z,23.86
2023-06-30T12:30:24.373Z,23.44
2023-06-30T12:32:58.908Z,23.25
2023-06-30T12:35:32.079Z,23.06
2023-06-30T12:38:00.343Z,22.87
2023-06-30T12:40:29.784Z,22.77
2023-06-30T12:42:57.517Z,22.72
2023-06-30T12:45:25.094Z,22.46
2023-06-30T12:47:53.078Z,22.33
2023-06-30T12:50:21.173Z,22.21
2023-06-30T12:52:50.180Z,21.80
2023-06-30T12:55:17.972Z,21.51
2023-06-30T12:57:45.521Z,21.21
2023-06-30T13:00:14.354Z,20.64
2023-06-30T13:02:41.927Z,19.53
2023-06-30T13:05:10.020Z,18.87
2023-06-30T13:07:37.667Z,18.81
2023-06-30T13:10:08.165Z,18.59
2023-06-30T13:12:40.890Z,18.40
2023-06-30T13:15:09.673Z,18.37
2023-06-30T13:17:37.324Z,18.32
2023-06-30T13:20:08.956Z,18.09
2023-06-30T13:22:40.283Z,17.93
2023-06-30T13:25:18.001Z,17.82
2023-06-30T13:27:45.933Z,17.55
2023-06-30T13:30:14.085Z,17.41
2023-06-30T13:32:41.770Z,17.42
2023-06-30T13:35:10.311Z,17.21
2023-06-30T13:37:38.247Z,16.99
2023-06-30T13:40:08.051Z,16.97
2023-06-30T13:42:36.942Z,16.95
2023-06-30T13:45:05.258Z,16.91
2023-06-30T13:47:32.855Z,16.94
2023-06-30T13:50:01.576Z,16.86
2023-06-30T13:52:29.482Z,16.93
2023-06-30T13:54:57.043Z,16.98
2023-06-30T13:57:24.599Z,17.06
2023-06-30T13:59:53.493Z,17.28
2023-06-30T14:02:22.293Z,17.41
2023-06-30T14:04:50.198Z,17.56
2023-06-30T14:07:17.924Z,17.56
2023-06-30T14:09:45.583Z,17.48
2023-06-30T14:12:13.124Z,17.49
2023-06-30T14:14:40.716Z,17.55
2023-06-30T14:17:09.693Z,17.67
2023-06-30T14:19:37.388Z,17.71
2023-06-30T14:22:05.277Z,17.77
2023-06-30T14:24:32.879Z,17.82
2023-06-30T14:27:00.565Z,17.89
2023-06-30T14:29:28.235Z,18.22
2023-06-30T14:31:56.628Z,18.69
2023-06-30T14:34:25.526Z,19.04
2023-06-30T14:36:53.175Z,19.85
2023-06-30T14:39:20.732Z,20.55
2023-06-30T14:42:01.321Z,21.60
2023-06-30T14:44:29.906Z,22.70
2023-06-30T14:46:59.831Z,23.64
2023-06-30T14:49:28.958Z,24.28
2023-06-30T14:51:56.556Z,24.49
2023-06-30T14:54:24.144Z,25.23
2023-06-30T14:56:52.346Z,27.06
2023-06-30T14:59:19.976Z,27.47
2023-06-30T15:01:47.587Z,28.86
2023-06-30T15:04:15.416Z,29.54
2023-06-30T15:06:44.787Z,30.97
2023-06-30T15:09:12.345Z,32.10
2023-06-30T15:11:39.953Z,32.34
2023-06-30T15:14:07.542Z,32.08
2023-06-30T15:16:35.170Z,32.46
2023-06-30T15:19:03.250Z,33.08
2023-06-30T15:21:30.912Z,33.56
2023-06-30T15:23:59.914Z,32.15
2023-06-30T15:26:27.482Z,33.62
2023-06-30T15:28:55.065Z,34.46
2023-06-30T15:31:22.662Z,32.47
2023-06-30T15:33:50.475Z,30.49
2023-06-30T15:36:18.202Z,30.09
2023-06-30T15:38:45.834Z,30.04
2023-06-30T15:41:22.776Z,29.73
2023-06-30T15:43:51.112Z,28.56
2023-06-30T15:46:19.263Z,26.77
2023-06-30T15:48:46.927Z,25.88
2023-06-30T15:51:14.524Z,25.92
2023-06-30T15:53:42.276Z,26.08
2023-06-30T15:56:10.032Z,25.51
2023-06-30T15:58:38.981Z,25.50
2023-06-30T16:01:06.609Z,25.27
2023-06-30T16:03:34.320Z,24.60
2023-06-30T16:06:02.051Z,24.67
2023-06-30T16:08:29.697Z,24.49
2023-06-30T16:10:57.311Z,24.23
2023-06-30T16:13:24.954Z,24.06
2023-06-30T16:15:53.998Z,23.82
2023-06-30T16:18:21.685Z,23.46
2023-06-30T16:20:49.323Z,22.92
2023-06-30T16:23:17.009Z,22.52
2023-06-30T16:25:44.813Z,22.93
2023-06-30T16:28:12.529Z,22.96
2023-06-30T16:30:43.177Z,22.39
2023-06-30T16:33:12.226Z,22.50
2023-06-30T16:35:39.876Z,22.09
2023-06-30T16:38:07.765Z,22.24
2023-06-30T16:40:35.363Z,21.64
2023-06-30T16:43:03.001Z,21.40
2023-06-30T16:45:30.614Z,21.47
2023-06-30T16:47:58.273Z,21.17
2023-06-30T16:50:27.230Z,21.26
2023-06-30T16:52:54.880Z,20.65
2023-06-30T16:55:22.443Z,20.20
2023-06-30T16:57:50.041Z,19.52
2023-06-30T17:00:18.773Z,19.47
2023-06-30T17:02:48.310Z,19.25
2023-06-30T17:05:16.163Z,18.91
2023-06-30T17:07:45.146Z,18.63
2023-06-30T17:10:12.845Z,18.44
2023-06-30T17:12:40.635Z,18.27
2023-06-30T17:15:10.086Z,17.97
2023-06-30T17:17:38.173Z,17.81
2023-06-30T17:20:06.739Z,17.75
2023-06-30T17:22:34.365Z,17.70
2023-06-30T17:25:05.428Z,17.69
2023-06-30T17:27:33.448Z,17.68
2023-06-30T17:30:01.203Z,17.55
2023-06-30T17:32:28.855Z,17.64
2023-06-30T17:34:56.451Z,17.67
2023-06-30T17:37:24.065Z,17.65
2023-06-30T17:39:51.778Z,17.70
2023-06-30T17:42:20.746Z,17.66
2023-06-30T17:44:48.398Z,17.57
2023-06-30T17:47:16.047Z,17.61
2023-06-30T17:49:43.843Z,17.61
2023-06-30T17:52:11.607Z,17.70
2023-06-30T17:54:39.338Z,17.70
2023-06-30T17:57:07.446Z,17.72
2023-06-30T17:59:36.457Z,17.80
2023-06-30T18:02:06.222Z,17.75
2023-06-30T18:04:34.314Z,17.80
2023-06-30T18:07:09.058Z,17.78
2023-06-30T18:09:38.386Z,17.83
2023-06-30T18:12:07.084Z,17.71
2023-06-30T18:14:37.139Z,17.85
2023-06-30T18:17:05.404Z,17.68
2023-06-30T18:19:33.840Z,17.75
2023-06-30T18:22:01.513Z,17.65
2023-06-30T18:24:29.111Z,17.60
2023-06-30T18:26:56.827Z,17.60
2023-06-30T18:29:25.677Z,17.65
2023-06-30T18:31:57.542Z,17.66
2023-06-30T18:34:26.984Z,17.68
2023-06-30T18:36:54.573Z,17.65
2023-06-30T18:39:22.322Z,17.61
2023-06-30T18:41:50.002Z,17.65
2023-06-30T18:44:17.616Z,17.64
2023-06-30T18:46:45.257Z,17.67
2023-06-30T18:49:14.398Z,17.64
2023-06-30T18:51:43.689Z,17.55
2023-06-30T18:54:11.420Z,17.67
2023-06-30T18:56:39.285Z,17.64
2023-06-30T18:59:07.043Z,17.55
2023-06-30T19:01:35.273Z,17.53
2023-06-30T19:04:03.338Z,17.50
2023-06-30T19:06:32.516Z,17.44
2023-06-30T19:09:00.160Z,17.39
2023-06-30T19:11:27.728Z,17.35
2023-06-30T19:13:55.933Z,17.32
2023-06-30T19:16:23.617Z,17.26
2023-06-30T19:18:51.279Z,17.25
2023-06-30T19:21:18.921Z,17.27
2023-06-30T19:23:47.916Z,17.27
2023-06-30T19:26:15.727Z,17.26
2023-06-30T19:28:44.313Z,17.21
2023-06-30T19:31:12.183Z,17.27
2023-06-30T19:33:40.061Z,17.24
2023-06-30T19:36:07.628Z,17.27
2023-06-30T19:38:35.428Z,17.26
2023-06-30T19:41:04.322Z,17.32
2023-06-30T19:43:31.880Z,17.25
2023-06-30T19:46:00.680Z,17.20
2023-06-30T19:48:28.382Z,17.23
2023-06-30T19:50:55.972Z,17.26
2023-06-30T19:53:23.521Z,17.29
2023-06-30T19:55:51.221Z,17.28
2023-06-30T19:58:20.106Z,17.30
2023-06-30T20:00:47.729Z,17.31
2023-06-30T20:03:15.515Z,17.35
2023-06-30T20:05:43.258Z,17.37
2023-06-30T20:08:11.532Z,17.33
2023-06-30T20:10:39.207Z,17.34
2023-06-30T20:13:07.807Z,17.32
2023-06-30T20:15:36.824Z,17.29
2023-06-30T20:18:05.082Z,17.34
2023-06-30T20:20:32.736Z,17.35
2023-06-30T20:23:01.394Z,17.35
2023-06-30T20:25:28.967Z,17.39
2023-06-30T20:27:56.548Z,17.34
2023-06-30T20:30:24.248Z,17.29
2023-06-30T20:32:53.266Z,17.32
2023-06-30T20:35:21.408Z,17.26
2023-06-30T20:37:48.998Z,17.21
2023-06-30T20:40:16.765Z,17.27
2023-06-30T20:42:44.596Z,17.28
2023-06-30T20:45:12.581Z,17.34
2023-06-30T20:47:40.317Z,17.29
2023-06-30T20:50:10.342Z,17.30
2023-06-30T20:52:38.248Z,17.25
2023-06-30T20:55:06.588Z,17.20
2023-06-30T20:57:34.266Z,17.20
2023-06-30T21:00:01.830Z,17.20
2023-06-30T21:02:29.449Z,17.21
2023-06-30T21:04:58.637Z,17.22
2023-06-30T21:07:27.910Z,17.22
2023-06-30T21:09:55.509Z,17.20
2023-06-30T21:12:23.144Z,17.18
2023-06-30T21:14:50.722Z,17.13
2023-06-30T21:17:18.419Z,17.01
2023-06-30T21:19:46.010Z,16.98
2023-06-30T21:22:13.628Z,16.93
2023-06-30T21:24:42.571Z,16.99
2023-06-30T21:27:11.291Z,17.10
2023-06-30T21:29:39.403Z,17.06
2023-06-30T21:32:08.300Z,16.96
2023-06-30T21:34:36.423Z,17.00
2023-06-30T21:37:04.368Z,16.99
2023-06-30T21:39:31.931Z,16.98
2023-06-30T21:42:00.867Z,16.90
2023-06-30T21:44:28.639Z,16.95
2023-06-30T21:46:56.306Z,16.92
2023-06-30T21:49:23.856Z,16.91
2023-06-30T21:51:51.450Z,16.84
2023-06-30T21:54:27.131Z,16.85
2023-06-30T21:56:59.110Z,16.74
2023-06-30T21:59:30.551Z,16.74
2023-06-30T22:01:58.143Z,16.76
2023-06-30T22:04:27.512Z,16.71
2023-06-30T22:06:55.108Z,16.65
2023-06-30T22:09:22.866Z,16.61
2023-06-30T22:11:50.507Z,16.60
2023-06-30T22:14:18.118Z,16.63
2023-06-30T22:16:47.035Z,16.59
2023-06-30T22:19:15.809Z,16.64
2023-06-30T22:21:43.475Z,16.65
2023-06-30T22:24:11.029Z,16.61
2023-06-30T22:26:38.689Z,16.64
2023-06-30T22:29:06.296Z,16.59
2023-06-30T22:31:33.930Z,16.61
2023-06-30T22:34:03.339Z,16.56
2023-06-30T22:36:30.918Z,16.59
2023-06-30T22:38:58.526Z,16.62
2023-06-30T22:41:26.483Z,16.64
2023-06-30T22:43:54.051Z,16.64
2023-06-30T22:46:21.650Z,16.59
2023-06-30T22:48:49.439Z,16.59
2023-06-30T22:51:19.060Z,16.56
2023-06-30T22:53:46.767Z,16.60
2023-06-30T22:56:14.367Z,16.45
2023-06-30T22:58:41.948Z,16.54
2023-06-30T23:01:11.083Z,16.55
2023-06-30T23:03:38.735Z,16.56
2023-06-30T23:06:06.379Z,16.55
2023-06-30T23:08:35.430Z,16.57
2023-06-30T23:11:04.529Z,16.61
2023-06-30T23:13:32.264Z,16.58
2023-06-30T23:16:02.314Z,16.57
2023-06-30T23:18:38.074Z,16.55
2023-06-30T23:21:10.751Z,16.52
2023-06-30T23:23:41.935Z,16.56
2023-06-30T23:26:11.200Z,16.53
2023-06-30T23:28:38.880Z,16.49
2023-06-30T23:31:06.687Z,16.51
2023-06-30T23:33:34.259Z,16.44
2023-06-30T23:36:01.909Z,16.42
2023-06-30T23:38:29.526Z,16.32
2023-06-30T23:40:58.421Z,16.31
2023-06-30T23:43:26.044Z,16.33
2023-06-30T23:45:53.615Z,16.33
2023-06-30T23:48:21.194Z,16.38
2023-06-30T23:50:49.067Z,16.34
2023-06-30T23:53:16.914Z,16.45
2023-06-30T23:55:44.519Z,16.49
2023-06-30T23:58:13.566Z,16.53
